ES-0071 weather

Ronda
Ronda, Andalucía, Spain

Public forecast

Using degrees Celsius for public forecast. Weather courtesy of forecast.io.

METAR (pilot weather report)

Closest report is Málaga Airport, 29.8 nm (55.3 km) E. Retrieved 2019/02/22 02:30 UTC (0 seconds ago):

LEMG 220230Z 28004KT 9999 FEW017 BKN030 10/07 Q1032 NOSIG

TAF (pilot weather forecast)

Forecast is more than 12 hours old.

Closest forecast is Málaga Airport, 29.8 nm (55.3 km) E. Retrieved 2019/02/21 00:27 UTC (1 day ago):

TAF LEMG 212300Z 2200/2224 29005KT 9999 SCT020 SCT030 TX17/2214Z TN11/2206Z PROB30 TEMPO 2200/2209 BKN014 BECMG 2209/2211 14007KT BECMG 2216/2218 VRB03KT